Time;durP1;ratioP1;P1;durP2;ratioP2;P2;SDS_P1;SDS_P2;PMS_P1;PMS_P2;Temp;Humidity;BMP_temperature;BMP_pressure;BME280_temperature;BME280_humidity;BME280_pressure;Samples;Min_cycle;Max_cycle;Signal;HPM_P1;HPM_P2
2023/09/05 00:00:03;;;;;;;;;;;26.50;32.20;;;;;;5030643;28;20374;-70
2023/09/05 00:02:30;;;;;;;;;;;26.70;33.00;;;;;;5031932;28;20311;-69
2023/09/05 00:04:57;;;;;;;;;;;27.20;31.80;;;;;;5031689;28;20274;-70
2023/09/05 00:07:24;;;;;;;;;;;27.70;30.40;;;;;;5034463;28;20023;-69
2023/09/05 00:09:51;;;;;;;;;;;27.90;29.10;;;;;;5030050;28;19913;-69
2023/09/05 00:12:17;;;;;;;;;;;27.30;30.90;;;;;;5032939;28;19944;-70
2023/09/05 00:14:44;;;;;;;;;;;27.30;32.50;;;;;;5029550;28;20457;-70
2023/09/05 00:17:11;;;;;;;;;;;27.70;31.30;;;;;;5033789;28;19913;-70
2023/09/05 00:19:37;;;;;;;;;;;28.00;29.30;;;;;;5035173;28;19975;-71
2023/09/05 00:22:04;;;;;;;;;;;27.70;31.70;;;;;;5032986;28;20309;-71
2023/09/05 00:24:38;;;;;;;;;;;27.70;31.30;;;;;;5032260;28;19925;-70
2023/09/05 00:27:07;;;;;;;;;;;28.00;31.10;;;;;;5031982;28;19999;-69
2023/09/05 00:29:33;;;;;;;;;;;28.40;32.70;;;;;;5028253;28;19913;-69
2023/09/05 00:32:01;;;;;;;;;;;28.90;30.70;;;;;;5030265;28;19928;-71
2023/09/05 00:34:29;;;;;;;;;;;29.10;30.60;;;;;;5031994;28;19924;-70
2023/09/05 00:36:56;;;;;;;;;;;28.90;30.20;;;;;;5030406;28;19916;-71
2023/09/05 00:39:24;;;;;;;;;;;29.00;29.60;;;;;;5030758;28;19921;-71
2023/09/05 00:41:51;;;;;;;;;;;29.10;29.90;;;;;;5029702;28;19917;-71
2023/09/05 00:44:18;;;;;;;;;;;29.10;29.40;;;;;;5030042;28;20084;-71
2023/09/05 00:46:45;;;;;;;;;;;29.40;29.10;;;;;;5029417;28;19982;-70
2023/09/05 00:49:15;;;;;;;;;;;29.30;29.80;;;;;;5034237;28;19913;-70
2023/09/05 00:51:50;;;;;;;;;;;29.50;29.50;;;;;;5029539;28;19925;-71
2023/09/05 00:54:17;;;;;;;;;;;29.70;30.20;;;;;;5032515;28;19947;-72
2023/09/05 00:56:45;;;;;;;;;;;29.70;30.30;;;;;;5034992;28;19920;-72
2023/09/05 00:59:12;;;;;;;;;;;29.70;30.00;;;;;;5030865;28;19913;-70
2023/09/05 01:01:39;;;;;;;;;;;29.90;29.70;;;;;;5031414;28;19909;-70
2023/09/05 01:04:06;;;;;;;;;;;30.20;29.80;;;;;;5028488;28;19909;-72
2023/09/05 01:06:32;;;;;;;;;;;30.20;29.30;;;;;;5031856;28;20011;-70
2023/09/05 01:09:07;;;;;;;;;;;29.90;29.40;;;;;;5034212;28;20277;-70
2023/09/05 01:11:34;;;;;;;;;;;29.90;29.10;;;;;;5031141;28;19964;-70
2023/09/05 01:14:01;;;;;;;;;;;30.30;27.20;;;;;;5031299;28;19915;-70
2023/09/05 01:16:28;;;;;;;;;;;30.10;27.20;;;;;;5030481;28;19916;-71
2023/09/05 01:18:54;;;;;;;;;;;30.00;28.30;;;;;;5031522;28;20055;-69
2023/09/05 01:21:21;;;;;;;;;;;29.80;27.60;;;;;;5031076;28;19909;-69
2023/09/05 01:23:55;;;;;;;;;;;30.00;27.30;;;;;;5032007;28;20244;-70
2023/09/05 01:26:22;;;;;;;;;;;29.80;26.20;;;;;;5030714;28;19960;-69
2023/09/05 01:28:51;;;;;;;;;;;29.60;28.30;;;;;;5030054;28;19909;-70
2023/09/05 01:31:18;;;;;;;;;;;29.80;27.50;;;;;;5029491;28;19921;-69
2023/09/05 01:33:45;;;;;;;;;;;29.80;28.60;;;;;;5028827;28;19913;-69
2023/09/05 01:36:12;;;;;;;;;;;29.90;29.40;;;;;;5030600;28;19913;-69
2023/09/05 01:38:38;;;;;;;;;;;30.20;27.80;;;;;;5030579;28;19984;-69
2023/09/05 01:41:05;;;;;;;;;;;30.30;28.80;;;;;;5031514;28;19917;-70
2023/09/05 01:43:32;;;;;;;;;;;30.50;28.20;;;;;;5030444;28;19920;-70
2023/09/05 01:45:58;;;;;;;;;;;30.40;25.50;;;;;;5031671;28;19995;-70
2023/09/05 01:48:25;;;;;;;;;;;29.50;25.60;;;;;;5031718;28;20352;-70
2023/09/05 01:50:52;;;;;;;;;;;29.60;26.30;;;;;;5028533;28;20393;-69
2023/09/05 01:53:18;;;;;;;;;;;29.70;25.10;;;;;;5030544;28;19936;-68
2023/09/05 01:55:45;;;;;;;;;;;28.70;24.70;;;;;;5030444;28;20366;-69
2023/09/05 01:58:12;;;;;;;;;;;28.40;24.50;;;;;;5030420;28;20058;-69
2023/09/05 02:00:38;;;;;;;;;;;28.10;25.70;;;;;;5028302;28;20397;-70
2023/09/05 02:03:05;;;;;;;;;;;28.10;25.30;;;;;;5025859;28;19921;-69
2023/09/05 02:05:32;;;;;;;;;;;28.10;26.00;;;;;;5029593;28;19997;-70
2023/09/05 02:07:58;;;;;;;;;;;28.40;26.20;;;;;;5031349;28;20354;-70
2023/09/05 02:10:25;;;;;;;;;;;28.50;25.80;;;;;;5029889;28;20325;-70
2023/09/05 02:12:52;;;;;;;;;;;28.00;24.80;;;;;;5032854;28;19925;-71
2023/09/05 02:15:18;;;;;;;;;;;28.00;26.30;;;;;;5032750;28;19940;-71
2023/09/05 02:17:45;;;;;;;;;;;28.50;24.90;;;;;;5036202;28;20350;-72
2023/09/05 02:20:12;;;;;;;;;;;28.40;25.80;;;;;;5034291;28;19920;-73
2023/09/05 02:22:40;;;;;;;;;;;27.80;24.10;;;;;;5036045;28;19909;-72
2023/09/05 02:25:07;;;;;;;;;;;27.70;26.10;;;;;;5033726;28;19921;-73
2023/09/05 02:27:34;;;;;;;;;;;28.00;25.80;;;;;;5035940;28;19955;-73
2023/09/05 02:30:04;;;;;;;;;;;28.50;24.60;;;;;;5033958;28;19920;-71
2023/09/05 02:32:31;;;;;;;;;;;28.20;24.30;;;;;;5036210;28;19949;-71
2023/09/05 02:34:58;;;;;;;;;;;27.50;24.10;;;;;;5035190;28;19923;-71
2023/09/05 02:37:25;;;;;;;;;;;27.30;23.90;;;;;;5035733;28;19917;-70
2023/09/05 02:39:52;;;;;;;;;;;27.50;25.50;;;;;;5037990;28;19916;-72
2023/09/05 02:42:18;;;;;;;;;;;27.40;24.30;;;;;;5032923;28;19921;-73
2023/09/05 02:44:45;;;;;;;;;;;27.60;24.70;;;;;;5033806;28;19952;-73
2023/09/05 02:47:12;;;;;;;;;;;27.90;24.60;;;;;;5035320;28;20282;-73
2023/09/05 02:49:38;;;;;;;;;;;27.40;24.40;;;;;;5034809;28;20354;-71
2023/09/05 02:52:05;;;;;;;;;;;27.80;24.20;;;;;;5027512;28;20389;-71
2023/09/05 02:54:32;;;;;;;;;;;28.30;25.00;;;;;;5032485;28;20398;-72
2023/09/05 02:56:58;;;;;;;;;;;28.60;24.50;;;;;;5032691;28;20401;-73
2023/09/05 02:59:25;;;;;;;;;;;28.70;25.60;;;;;;5030981;28;20004;-73
2023/09/05 03:01:52;;;;;;;;;;;28.90;24.70;;;;;;5034129;28;19913;-73
2023/09/05 03:04:18;;;;;;;;;;;28.90;24.90;;;;;;5034960;28;19920;-73
2023/09/05 03:06:46;;;;;;;;;;;29.10;25.30;;;;;;5034650;28;20318;-73
2023/09/05 03:09:13;;;;;;;;;;;29.40;25.30;;;;;;5035920;28;19917;-73
2023/09/05 03:11:40;;;;;;;;;;;29.40;25.50;;;;;;5035889;28;20015;-73
2023/09/05 03:14:06;;;;;;;;;;;29.70;25.70;;;;;;5035607;28;20035;-73
2023/09/05 03:16:33;;;;;;;;;;;29.90;25.20;;;;;;5034902;28;19913;-73
2023/09/05 03:19:00;;;;;;;;;;;29.60;25.10;;;;;;5035726;28;19913;-73
2023/09/05 03:21:27;;;;;;;;;;;29.70;26.60;;;;;;5035215;28;20282;-73
2023/09/05 03:23:54;;;;;;;;;;;29.70;24.60;;;;;;5035005;28;20363;-72
2023/09/05 03:26:20;;;;;;;;;;;29.50;24.90;;;;;;5031344;28;20349;-71
2023/09/05 03:28:47;;;;;;;;;;;29.20;25.10;;;;;;5036573;28;20363;-73
2023/09/05 03:31:14;;;;;;;;;;;29.20;25.40;;;;;;5034882;28;19917;-73
2023/09/05 03:33:41;;;;;;;;;;;29.20;25.00;;;;;;5035326;28;20315;-74
2023/09/05 03:36:09;;;;;;;;;;;29.20;25.70;;;;;;5046110;28;19924;-74
2023/09/05 03:38:35;;;;;;;;;;;29.20;25.10;;;;;;5035715;28;19967;-73
2023/09/05 03:41:02;;;;;;;;;;;29.30;25.50;;;;;;5035201;28;19920;-72
2023/09/05 03:43:29;;;;;;;;;;;29.30;24.30;;;;;;5035670;28;19932;-72
2023/09/05 03:45:55;;;;;;;;;;;28.60;24.60;;;;;;5034811;28;20393;-72
2023/09/05 03:48:26;;;;;;;;;;;28.30;24.90;;;;;;5035282;28;20394;-73
2023/09/05 03:50:53;;;;;;;;;;;28.50;25.30;;;;;;5034101;28;20279;-73
2023/09/05 03:53:20;;;;;;;;;;;28.70;25.10;;;;;;5034877;28;19913;-73
2023/09/05 03:55:47;;;;;;;;;;;29.00;25.90;;;;;;5033969;28;20012;-72
2023/09/05 03:58:14;;;;;;;;;;;29.10;27.00;;;;;;5033863;28;19920;-73
2023/09/05 04:00:41;;;;;;;;;;;29.30;26.40;;;;;;5035768;28;19917;-72
2023/09/05 04:03:10;;;;;;;;;;;29.40;25.80;;;;;;5036683;28;19917;-72
2023/09/05 04:05:37;;;;;;;;;;;29.60;25.60;;;;;;5033722;28;19913;-73
2023/09/05 04:08:07;;;;;;;;;;;29.60;26.60;;;;;;5032428;28;19951;-72
2023/09/05 04:10:34;;;;;;;;;;;29.80;26.20;;;;;;5035165;28;19921;-72
2023/09/05 04:13:01;;;;;;;;;;;29.70;24.90;;;;;;5031969;28;19929;-71
2023/09/05 04:15:27;;;;;;;;;;;29.60;24.90;;;;;;5030713;28;20005;-72
2023/09/05 04:17:54;;;;;;;;;;;29.30;24.80;;;;;;5033617;28;19988;-71
2023/09/05 04:20:21;;;;;;;;;;;29.00;25.30;;;;;;5025685;28;20413;-72
2023/09/05 04:22:47;;;;;;;;;;;28.60;24.70;;;;;;5031199;28;20474;-73
2023/09/05 04:25:14;;;;;;;;;;;28.10;25.00;;;;;;5030655;28;19959;-72
2023/09/05 04:27:41;;;;;;;;;;;27.60;24.80;;;;;;5033115;28;19944;-69
2023/09/05 04:30:09;;;;;;;;;;;27.40;24.60;;;;;;5031632;28;20390;-71
2023/09/05 04:32:36;;;;;;;;;;;27.00;25.30;;;;;;5029841;28;19932;-72
2023/09/05 04:35:05;;;;;;;;;;;27.00;24.90;;;;;;5033747;28;19913;-73
2023/09/05 04:37:31;;;;;;;;;;;27.00;24.90;;;;;;5029953;28;19948;-71
2023/09/05 04:39:58;;;;;;;;;;;27.00;24.70;;;;;;5033172;28;19966;-71
2023/09/05 04:42:26;;;;;;;;;;;27.00;24.20;;;;;;5032365;28;19917;-71
2023/09/05 04:44:53;;;;;;;;;;;26.80;24.70;;;;;;5031278;28;19993;-71
2023/09/05 04:47:20;;;;;;;;;;;26.70;25.30;;;;;;5033351;28;20322;-72
2023/09/05 04:49:54;;;;;;;;;;;26.70;24.50;;;;;;5032472;28;19914;-73
2023/09/05 04:52:22;;;;;;;;;;;26.70;25.20;;;;;;5031462;28;19921;-72
2023/09/05 04:54:49;;;;;;;;;;;26.70;24.70;;;;;;5027969;28;20370;-73
2023/09/05 04:57:16;;;;;;;;;;;26.80;25.50;;;;;;5031414;28;19917;-72
2023/09/05 04:59:44;;;;;;;;;;;26.90;25.20;;;;;;5048964;28;19909;-72
2023/09/05 05:02:11;;;;;;;;;;;27.00;25.50;;;;;;5029158;28;19917;-72
2023/09/05 05:04:38;;;;;;;;;;;27.10;25.10;;;;;;5033690;28;19913;-73
2023/09/05 05:07:05;;;;;;;;;;;27.00;25.20;;;;;;5031008;28;20373;-73
2023/09/05 05:09:31;;;;;;;;;;;27.00;24.10;;;;;;5031814;28;19913;-72
2023/09/05 05:11:59;;;;;;;;;;;26.70;24.10;;;;;;5034718;28;20318;-72
2023/09/05 05:14:25;;;;;;;;;;;26.60;25.30;;;;;;5028964;28;20356;-71
2023/09/05 05:16:53;;;;;;;;;;;26.60;25.20;;;;;;5027260;28;19913;-72
2023/09/05 05:19:21;;;;;;;;;;;26.50;24.70;;;;;;5033132;28;19913;-73
2023/09/05 05:21:48;;;;;;;;;;;26.50;24.80;;;;;;5031155;28;20305;-73
2023/09/05 05:24:15;;;;;;;;;;;26.10;24.70;;;;;;5046163;28;19924;-70
2023/09/05 05:26:42;;;;;;;;;;;25.50;24.40;;;;;;5035814;28;20031;-72
2023/09/05 05:29:09;;;;;;;;;;;25.30;24.80;;;;;;5033298;28;20011;-70
2023/09/05 05:31:36;;;;;;;;;;;25.30;25.50;;;;;;5032986;28;19917;-70
2023/09/05 05:34:03;;;;;;;;;;;25.40;25.30;;;;;;5030746;28;19948;-72
2023/09/05 05:36:30;;;;;;;;;;;25.50;24.90;;;;;;5031898;28;19976;-71
2023/09/05 05:38:57;;;;;;;;;;;25.40;24.90;;;;;;5030005;28;20333;-70
2023/09/05 05:41:24;;;;;;;;;;;25.20;24.80;;;;;;5031449;28;19940;-70
2023/09/05 05:43:51;;;;;;;;;;;25.30;25.20;;;;;;5035753;28;19937;-72
2023/09/05 05:46:18;;;;;;;;;;;25.30;25.10;;;;;;5030332;28;20309;-71
2023/09/05 05:48:45;;;;;;;;;;;25.10;24.60;;;;;;5032343;28;19936;-72
2023/09/05 05:51:22;;;;;;;;;;;24.70;24.70;;;;;;5033134;28;19935;-72
2023/09/05 05:53:49;;;;;;;;;;;24.50;25.20;;;;;;5029154;28;19921;-70
2023/09/05 05:56:16;;;;;;;;;;;24.40;24.90;;;;;;5031594;28;20439;-71
2023/09/05 05:58:44;;;;;;;;;;;24.40;24.80;;;;;;5028549;28;19913;-71
2023/09/05 06:01:11;;;;;;;;;;;24.30;24.40;;;;;;5029749;28;19914;-70
2023/09/05 06:03:37;;;;;;;;;;;24.20;24.80;;;;;;5027151;28;19928;-71
2023/09/05 06:06:04;;;;;;;;;;;24.20;25.00;;;;;;5029008;28;19921;-71
2023/09/05 06:08:31;;;;;;;;;;;24.30;24.70;;;;;;5031855;28;19947;-71
2023/09/05 06:10:58;;;;;;;;;;;24.30;24.80;;;;;;5032020;28;20000;-70
2023/09/05 06:13:25;;;;;;;;;;;24.40;24.30;;;;;;5029573;28;19925;-70
2023/09/05 06:15:52;;;;;;;;;;;24.30;25.10;;;;;;5032369;28;20378;-70
2023/09/05 06:18:19;;;;;;;;;;;24.30;24.70;;;;;;5029838;28;19913;-69
2023/09/05 06:20:45;;;;;;;;;;;24.00;24.50;;;;;;5031866;28;19909;-70
2023/09/05 06:23:12;;;;;;;;;;;24.10;25.30;;;;;;5032005;28;19918;-70
2023/09/05 06:25:39;;;;;;;;;;;24.10;24.60;;;;;;5031778;28;19913;-69
2023/09/05 06:28:06;;;;;;;;;;;24.10;25.10;;;;;;5031993;28;20358;-69
2023/09/05 06:30:33;;;;;;;;;;;24.00;24.80;;;;;;5031067;28;19920;-70
2023/09/05 06:32:59;;;;;;;;;;;23.60;24.10;;;;;;5031853;28;19921;-69
2023/09/05 06:35:26;;;;;;;;;;;23.50;24.50;;;;;;5031106;28;19913;-71
2023/09/05 06:37:57;;;;;;;;;;;23.50;24.20;;;;;;5028509;28;19966;-70
2023/09/05 06:40:24;;;;;;;;;;;23.40;23.80;;;;;;5044830;28;20043;-70
2023/09/05 06:42:51;;;;;;;;;;;23.20;24.10;;;;;;5031899;28;20506;-70
2023/09/05 06:45:18;;;;;;;;;;;23.20;24.20;;;;;;5031297;28;19921;-69
2023/09/05 06:47:44;;;;;;;;;;;23.10;24.40;;;;;;5028653;28;20113;-70
2023/09/05 06:50:11;;;;;;;;;;;23.10;24.70;;;;;;5027070;28;19917;-69
2023/09/05 06:52:39;;;;;;;;;;;23.00;24.70;;;;;;5029565;28;19917;-69
2023/09/05 06:55:05;;;;;;;;;;;23.10;24.70;;;;;;5029294;28;19921;-70
2023/09/05 06:57:32;;;;;;;;;;;23.10;24.90;;;;;;5026419;28;19920;-70
2023/09/05 06:59:59;;;;;;;;;;;23.00;25.20;;;;;;5034102;28;19928;-71
2023/09/05 07:02:26;;;;;;;;;;;23.00;25.60;;;;;;5034540;28;19917;-69
2023/09/05 07:04:52;;;;;;;;;;;22.90;26.00;;;;;;5034280;28;19968;-71
2023/09/05 07:07:20;;;;;;;;;;;22.80;26.60;;;;;;5033174;28;19928;-69
2023/09/05 07:09:47;;;;;;;;;;;22.50;27.00;;;;;;5032504;28;19996;-69
2023/09/05 07:12:13;;;;;;;;;;;22.40;27.30;;;;;;5032065;28;19925;-69
2023/09/05 07:14:40;;;;;;;;;;;22.20;27.10;;;;;;5033115;28;20359;-71
2023/09/05 07:17:07;;;;;;;;;;;22.00;27.40;;;;;;5035408;28;20376;-70
2023/09/05 07:19:34;;;;;;;;;;;21.90;27.40;;;;;;5036287;28;19917;-70
2023/09/05 07:22:00;;;;;;;;;;;21.60;27.90;;;;;;5035143;28;19917;-70
2023/09/05 07:24:27;;;;;;;;;;;21.50;28.20;;;;;;5035616;28;19909;-70
2023/09/05 07:26:54;;;;;;;;;;;21.40;28.00;;;;;;5034879;28;19936;-70
2023/09/05 07:29:20;;;;;;;;;;;21.30;28.10;;;;;;5035223;28;20374;-70
2023/09/05 07:31:47;;;;;;;;;;;21.20;28.30;;;;;;5034064;28;19972;-70
2023/09/05 07:34:14;;;;;;;;;;;21.10;28.40;;;;;;5033946;28;20389;-70
2023/09/05 07:36:41;;;;;;;;;;;21.00;28.50;;;;;;5033592;28;19924;-69
2023/09/05 07:39:10;;;;;;;;;;;20.90;28.80;;;;;;5036873;28;19920;-70
2023/09/05 07:41:38;;;;;;;;;;;20.90;28.90;;;;;;5031265;28;19920;-70
2023/09/05 07:44:05;;;;;;;;;;;20.80;29.10;;;;;;5033116;28;19925;-70
2023/09/05 07:46:32;;;;;;;;;;;20.70;29.10;;;;;;5032248;28;19913;-68
2023/09/05 07:49:00;;;;;;;;;;;20.60;29.30;;;;;;5033900;28;19917;-70
2023/09/05 07:51:29;;;;;;;;;;;20.50;29.40;;;;;;5032402;28;20290;-70
2023/09/05 07:54:03;;;;;;;;;;;20.50;29.60;;;;;;5033851;28;19935;-70
2023/09/05 07:56:31;;;;;;;;;;;20.40;29.70;;;;;;5030032;28;19959;-68
2023/09/05 07:58:58;;;;;;;;;;;20.30;29.90;;;;;;5033816;28;20301;-69
2023/09/05 08:01:25;;;;;;;;;;;20.20;30.00;;;;;;5031409;28;19940;-68
2023/09/05 08:03:52;;;;;;;;;;;20.20;30.00;;;;;;5031677;28;19917;-69
2023/09/05 08:06:20;;;;;;;;;;;20.10;30.30;;;;;;5042255;28;20264;-69
2023/09/05 08:08:46;;;;;;;;;;;20.00;30.40;;;;;;5026221;28;19917;-70
2023/09/05 08:11:13;;;;;;;;;;;19.90;31.70;;;;;;5025985;28;19925;-69
2023/09/05 08:13:40;;;;;;;;;;;19.60;32.00;;;;;;5030454;28;19923;-69
2023/09/05 08:16:06;;;;;;;;;;;19.40;32.70;;;;;;5026764;28;19986;-70
2023/09/05 08:18:33;;;;;;;;;;;19.40;33.20;;;;;;5032599;28;19952;-70
2023/09/05 08:21:01;;;;;;;;;;;19.40;32.00;;;;;;5031680;28;19924;-69
2023/09/05 08:23:27;;;;;;;;;;;19.50;31.80;;;;;;5031861;28;19923;-69
2023/09/05 08:25:57;;;;;;;;;;;19.50;32.40;;;;;;5048068;28;19920;-70
2023/09/05 08:28:26;;;;;;;;;;;19.30;32.20;;;;;;5033695;28;19920;-70
2023/09/05 08:30:59;;;;;;;;;;;19.20;32.70;;;;;;5034646;28;19917;-70
2023/09/05 08:33:27;;;;;;;;;;;19.10;32.60;;;;;;5026966;28;19921;-69
2023/09/05 08:35:54;;;;;;;;;;;19.10;32.90;;;;;;5027671;28;19913;-69
2023/09/05 08:38:21;;;;;;;;;;;19.00;32.80;;;;;;5031015;28;19909;-69
2023/09/05 08:40:48;;;;;;;;;;;18.90;33.20;;;;;;5031685;28;19913;-69
2023/09/05 08:43:17;;;;;;;;;;;18.80;33.50;;;;;;5032477;28;19932;-69
2023/09/05 08:45:47;;;;;;;;;;;18.80;34.10;;;;;;5029016;28;19926;-70
2023/09/05 08:48:14;;;;;;;;;;;18.90;34.10;;;;;;5029380;28;20393;-70
2023/09/05 08:50:41;;;;;;;;;;;18.90;34.50;;;;;;5030126;28;19913;-69
2023/09/05 08:53:12;;;;;;;;;;;18.90;34.70;;;;;;5030534;28;19960;-70
2023/09/05 08:55:40;;;;;;;;;;;18.90;34.90;;;;;;5028034;28;20282;-69
2023/09/05 08:58:16;;;;;;;;;;;18.90;35.20;;;;;;5030580;28;20002;-69
2023/09/05 09:00:44;;;;;;;;;;;18.80;35.80;;;;;;5031445;28;19920;-68
2023/09/05 09:03:11;;;;;;;;;;;18.90;36.30;;;;;;5030264;28;20286;-69
2023/09/05 09:05:37;;;;;;;;;;;18.90;36.60;;;;;;5031063;28;19920;-70
2023/09/05 09:08:04;;;;;;;;;;;18.80;37.00;;;;;;5028864;28;19944;-68
2023/09/05 09:10:31;;;;;;;;;;;18.70;37.40;;;;;;5029476;28;19909;-70
2023/09/05 09:13:14;;;;;;;;;;;18.70;37.60;;;;;;5032055;28;19921;-69
2023/09/05 09:15:43;;;;;;;;;;;18.70;37.70;;;;;;5032822;28;19919;-69
2023/09/05 09:18:13;;;;;;;;;;;18.80;37.90;;;;;;5031402;28;20008;-69
2023/09/05 09:20:46;;;;;;;;;;;18.70;38.10;;;;;;5027358;28;19917;-69
2023/09/05 09:23:23;;;;;;;;;;;18.60;38.50;;;;;;5025440;28;19917;-70
2023/09/05 09:25:51;;;;;;;;;;;18.30;39.60;;;;;;5042182;28;19964;-70
2023/09/05 09:28:22;;;;;;;;;;;18.10;40.30;;;;;;5028755;28;19917;-68
2023/09/05 09:30:56;;;;;;;;;;;18.00;40.60;;;;;;5029912;28;19976;-69
2023/09/05 09:33:23;;;;;;;;;;;17.70;41.20;;;;;;5027308;28;19960;-69
2023/09/05 09:36:03;;;;;;;;;;;17.60;41.60;;;;;;5031449;28;19913;-70
2023/09/05 09:38:30;;;;;;;;;;;17.40;41.30;;;;;;5028182;28;20266;-69
2023/09/05 09:40:57;;;;;;;;;;;17.40;41.50;;;;;;5031845;28;19917;-69
2023/09/05 09:43:24;;;;;;;;;;;17.30;42.70;;;;;;5027245;28;19913;-69
2023/09/05 09:45:51;;;;;;;;;;;17.40;41.90;;;;;;5031094;28;19932;-69
2023/09/05 09:48:19;;;;;;;;;;;17.40;41.70;;;;;;5030438;28;19915;-70
2023/09/05 09:50:46;;;;;;;;;;;17.50;41.10;;;;;;5030528;28;20317;-69
2023/09/05 09:53:15;;;;;;;;;;;17.70;41.00;;;;;;5029276;28;19964;-69
2023/09/05 09:55:43;;;;;;;;;;;17.70;40.80;;;;;;5029781;28;19917;-69
2023/09/05 09:58:14;;;;;;;;;;;17.60;41.10;;;;;;5029511;28;20378;-69
2023/09/05 10:00:47;;;;;;;;;;;17.50;41.10;;;;;;5030223;28;19921;-69
2023/09/05 10:03:13;;;;;;;;;;;17.50;41.00;;;;;;5029811;28;20027;-70
2023/09/05 10:05:41;;;;;;;;;;;17.60;41.10;;;;;;5030223;28;19917;-69
2023/09/05 10:08:11;;;;;;;;;;;17.60;41.20;;;;;;5032275;28;20286;-70
2023/09/05 10:10:38;;;;;;;;;;;17.50;41.00;;;;;;5046752;28;20366;-69
2023/09/05 10:13:06;;;;;;;;;;;17.50;41.10;;;;;;5031021;28;19920;-69
2023/09/05 10:15:34;;;;;;;;;;;17.50;41.20;;;;;;5028248;28;19984;-72
2023/09/05 10:18:01;;;;;;;;;;;17.40;41.20;;;;;;5027699;28;19913;-68
2023/09/05 10:20:30;;;;;;;;;;;17.20;41.60;;;;;;5026123;28;19917;-68
2023/09/05 10:22:57;;;;;;;;;;;17.10;42.00;;;;;;5025728;28;20026;-68
2023/09/05 10:25:26;;;;;;;;;;;17.10;42.20;;;;;;5026230;28;19924;-68
2023/09/05 10:27:53;;;;;;;;;;;17.20;42.00;;;;;;5024205;28;20447;-70
2023/09/05 10:30:20;;;;;;;;;;;17.10;42.20;;;;;;5040355;28;20310;-69
2023/09/05 10:32:47;;;;;;;;;;;17.00;42.40;;;;;;5027546;28;19925;-69
2023/09/05 10:35:18;;;;;;;;;;;16.90;42.70;;;;;;5031385;28;19937;-69
2023/09/05 10:37:50;;;;;;;;;;;16.80;43.00;;;;;;5030695;28;19917;-69
2023/09/05 10:40:18;;;;;;;;;;;16.80;43.20;;;;;;5030543;28;19921;-68
2023/09/05 10:42:55;;;;;;;;;;;17.00;42.70;;;;;;5031327;28;19964;-70
2023/09/05 10:45:21;;;;;;;;;;;16.90;42.80;;;;;;5023699;28;19928;-69
2023/09/05 10:47:49;;;;;;;;;;;16.90;43.10;;;;;;5023042;28;19919;-68
2023/09/05 10:50:19;;;;;;;;;;;16.70;43.70;;;;;;5027268;28;20639;-69
2023/09/05 10:53:06;;;;;;;;;;;16.80;43.70;;;;;;5034232;28;19921;-69
2023/09/05 10:55:40;;;;;;;;;;;17.00;43.70;;;;;;5027840;28;19917;-70
2023/09/05 10:58:25;;;;;;;;;;;16.90;43.70;;;;;;5030815;28;20016;-69
2023/09/05 11:00:51;;;;;;;;;;;16.70;44.30;;;;;;5032460;28;19920;-68
2023/09/05 11:03:18;;;;;;;;;;;16.80;44.20;;;;;;5031773;28;20007;-67
2023/09/05 11:05:48;;;;;;;;;;;16.90;44.10;;;;;;5031349;28;19979;-68
2023/09/05 11:08:20;;;;;;;;;;;16.80;44.30;;;;;;5030933;28;20024;-69
2023/09/05 11:10:47;;;;;;;;;;;16.80;44.70;;;;;;5031141;28;19920;-69
2023/09/05 11:13:17;;;;;;;;;;;16.80;44.50;;;;;;5032178;28;21621;-69
2023/09/05 11:15:44;;;;;;;;;;;16.80;44.90;;;;;;5033897;28;19931;-69
2023/09/05 11:18:14;;;;;;;;;;;16.90;44.80;;;;;;5030146;28;20417;-68
2023/09/05 11:20:41;;;;;;;;;;;16.80;45.20;;;;;;5033096;28;19920;-69
2023/09/05 11:23:12;;;;;;;;;;;16.80;45.40;;;;;;5033323;28;20325;-69
2023/09/05 11:25:43;;;;;;;;;;;16.80;45.40;;;;;;5032091;28;19917;-69
2023/09/05 11:28:10;;;;;;;;;;;16.80;45.50;;;;;;5032179;28;19915;-69
2023/09/05 11:30:41;;;;;;;;;;;16.80;45.70;;;;;;5031097;28;19953;-69
2023/09/05 11:33:08;;;;;;;;;;;16.80;45.70;;;;;;5034548;28;20373;-68
2023/09/05 11:35:40;;;;;;;;;;;16.80;45.90;;;;;;5034717;28;20278;-69
2023/09/05 11:38:07;;;;;;;;;;;16.70;46.00;;;;;;5031324;28;19917;-69
2023/09/05 11:40:35;;;;;;;;;;;16.60;46.40;;;;;;5034162;28;19914;-68
2023/09/05 11:43:03;;;;;;;;;;;16.60;46.20;;;;;;5031197;28;19919;-69
2023/09/05 11:45:30;;;;;;;;;;;16.60;46.30;;;;;;5025149;28;20338;-69
2023/09/05 11:47:57;;;;;;;;;;;16.50;46.60;;;;;;5027872;28;19918;-69
2023/09/05 11:50:24;;;;;;;;;;;16.40;46.70;;;;;;5033624;28;20354;-69
2023/09/05 11:52:52;;;;;;;;;;;16.40;47.10;;;;;;5033154;28;19929;-70
2023/09/05 11:55:21;;;;;;;;;;;16.30;47.50;;;;;;5028369;28;19923;-69
2023/09/05 11:57:50;;;;;;;;;;;16.10;47.70;;;;;;5030995;28;19924;-68
2023/09/05 12:00:17;;;;;;;;;;;15.70;48.10;;;;;;5030428;28;19913;-69
2023/09/05 12:02:45;;;;;;;;;;;15.50;49.00;;;;;;5029209;28;19917;-69
2023/09/05 12:05:12;;;;;;;;;;;15.30;50.10;;;;;;5028676;28;20039;-68
2023/09/05 12:07:39;;;;;;;;;;;15.20;51.10;;;;;;5029867;28;20385;-69
2023/09/05 12:10:06;;;;;;;;;;;15.00;52.00;;;;;;5028440;28;20004;-69
2023/09/05 12:12:33;;;;;;;;;;;14.80;52.00;;;;;;5030615;28;19920;-69
2023/09/05 12:15:00;;;;;;;;;;;14.70;52.80;;;;;;5030201;28;19987;-68
2023/09/05 12:17:27;;;;;;;;;;;14.80;52.80;;;;;;5032165;28;20282;-69
2023/09/05 12:19:55;;;;;;;;;;;14.80;52.80;;;;;;5031118;28;19916;-68
2023/09/05 12:22:25;;;;;;;;;;;14.70;51.90;;;;;;5032613;28;20331;-68
2023/09/05 12:25:11;;;;;;;;;;;14.50;53.20;;;;;;5031207;28;20655;-68
2023/09/05 12:27:39;;;;;;;;;;;14.40;53.10;;;;;;5032562;28;19913;-69
2023/09/05 12:30:06;;;;;;;;;;;14.40;52.90;;;;;;5030733;28;19944;-68
2023/09/05 12:32:34;;;;;;;;;;;14.30;53.20;;;;;;5031092;28;19917;-68
2023/09/05 12:35:00;;;;;;;;;;;14.30;54.90;;;;;;5032324;28;19916;-70
2023/09/05 12:37:27;;;;;;;;;;;14.30;53.80;;;;;;5028301;28;20016;-69
2023/09/05 12:39:56;;;;;;;;;;;14.50;52.40;;;;;;5028605;28;19921;-69
2023/09/05 12:42:25;;;;;;;;;;;14.40;52.30;;;;;;5031070;28;19956;-68
2023/09/05 12:44:52;;;;;;;;;;;14.40;53.20;;;;;;5024780;28;19979;-69
2023/09/05 12:47:19;;;;;;;;;;;14.30;52.90;;;;;;5031028;28;19920;-69
2023/09/05 12:49:47;;;;;;;;;;;14.40;52.30;;;;;;5030240;28;19964;-68
2023/09/05 12:52:13;;;;;;;;;;;14.50;52.00;;;;;;5028702;28;19922;-69
2023/09/05 12:54:40;;;;;;;;;;;14.50;53.10;;;;;;5027751;28;19925;-69
2023/09/05 12:57:07;;;;;;;;;;;14.40;53.60;;;;;;5028630;28;19921;-68
2023/09/05 12:59:34;;;;;;;;;;;14.30;52.70;;;;;;5029812;28;19913;-68
2023/09/05 13:02:00;;;;;;;;;;;14.20;53.70;;;;;;5027456;28;20019;-68
2023/09/05 13:04:27;;;;;;;;;;;14.00;55.10;;;;;;5032540;28;20000;-69
2023/09/05 13:06:54;;;;;;;;;;;13.90;55.50;;;;;;5030938;28;19913;-68
2023/09/05 13:09:20;;;;;;;;;;;13.90;55.10;;;;;;5029743;28;19964;-69
2023/09/05 13:11:47;;;;;;;;;;;13.80;54.70;;;;;;5029544;28;19967;-68
2023/09/05 13:14:14;;;;;;;;;;;13.80;56.20;;;;;;5024899;28;19917;-69
2023/09/05 13:16:40;;;;;;;;;;;13.50;56.70;;;;;;5031749;28;19967;-69
2023/09/05 13:19:07;;;;;;;;;;;13.40;57.40;;;;;;5027410;28;20390;-69
2023/09/05 13:21:34;;;;;;;;;;;13.30;58.10;;;;;;5029202;28;19917;-69
2023/09/05 13:24:00;;;;;;;;;;;13.20;58.20;;;;;;5029101;28;19943;-68
2023/09/05 13:26:28;;;;;;;;;;;13.20;57.40;;;;;;5027582;28;19913;-69
2023/09/05 13:28:55;;;;;;;;;;;13.30;57.30;;;;;;5030338;28;20491;-68
2023/09/05 13:31:22;;;;;;;;;;;13.40;57.40;;;;;;5035350;28;19920;-69
2023/09/05 13:33:49;;;;;;;;;;;13.40;57.30;;;;;;5031956;28;19917;-69
2023/09/05 13:36:17;;;;;;;;;;;13.50;57.00;;;;;;5032012;28;20401;-68
2023/09/05 13:38:44;;;;;;;;;;;13.70;55.70;;;;;;5029839;28;19909;-68
2023/09/05 13:41:10;;;;;;;;;;;13.60;55.70;;;;;;5031469;28;20378;-68
2023/09/05 13:43:37;;;;;;;;;;;13.50;56.80;;;;;;5028523;28;19913;-68
2023/09/05 13:46:05;;;;;;;;;;;13.40;57.60;;;;;;5030050;28;20008;-69
2023/09/05 13:48:31;;;;;;;;;;;13.30;58.10;;;;;;5046267;28;19913;-69
2023/09/05 13:50:58;;;;;;;;;;;13.30;58.20;;;;;;5032025;28;19913;-69
2023/09/05 13:53:25;;;;;;;;;;;13.20;58.10;;;;;;5043036;28;19921;-69
2023/09/05 13:55:52;;;;;;;;;;;13.20;58.30;;;;;;5028936;28;19928;-69
2023/09/05 13:58:19;;;;;;;;;;;13.20;58.10;;;;;;5032054;28;19917;-69
2023/09/05 14:00:46;;;;;;;;;;;13.20;58.00;;;;;;5028790;28;19967;-69
2023/09/05 14:03:12;;;;;;;;;;;13.20;57.80;;;;;;5032147;28;19913;-70
2023/09/05 14:05:40;;;;;;;;;;;13.20;58.00;;;;;;5031108;28;20297;-69
2023/09/05 14:08:07;;;;;;;;;;;13.20;58.20;;;;;;5032145;28;20001;-69
2023/09/05 14:10:33;;;;;;;;;;;13.20;58.30;;;;;;5032283;28;20388;-69
2023/09/05 14:13:00;;;;;;;;;;;13.20;58.70;;;;;;5033362;28;19929;-68
2023/09/05 14:15:27;;;;;;;;;;;13.10;59.00;;;;;;5034733;28;20378;-69
2023/09/05 14:17:54;;;;;;;;;;;13.10;59.70;;;;;;5033459;28;20024;-69